Gilbues, Brazil
Current Conditions -  °F | °C
As of 2:00 PM on Friday 19 Dec 2014 (Local Time) from SBPJ Reporting Station
Thunderstorm Thunderstorm  
Wind Chill: 86°   Ceiling: Unl
Heat Index: NA   Visibility: 6mi
Dew Point: NA   Wind: 12mph
Humidity: NA   Direction: 300°WNW
Pressure: 29.8"   Gusts: NA
Location:  9.83°S, 45.34°W
Report Text: SBPJ 191700Z 30010KT 9999 TS VCSH SCT025 FEW030TCU FEW035CB 30/23 Q1009
Loading
Personal Weather Stations






























Interactive Weather Map New forecast layout! Learn more

10-Day Weather Forecast

Advertisements
Track Severe Weather on mobile